sensor_id;sensor_type;location;lat;lon;timestamp;P1;durP1;ratioP1;P2;durP2;ratioP2
74974;SDS011;68459;50.836;19.138;2023-07-31T00:00:16;3.90;;;2.08;;
74974;SDS011;68459;50.836;19.138;2023-07-31T00:03:40;5.63;;;2.53;;
74974;SDS011;68459;50.836;19.138;2023-07-31T00:06:44;4.63;;;2.30;;
74974;SDS011;68459;50.836;19.138;2023-07-31T00:09:48;3.33;;;2.60;;
74974;SDS011;68459;50.836;19.138;2023-07-31T00:12:53;3.78;;;2.20;;
74974;SDS011;68459;50.836;19.138;2023-07-31T00:15:57;3.28;;;2.33;;
74974;SDS011;68459;50.836;19.138;2023-07-31T00:19:01;4.25;;;2.10;;
74974;SDS011;68459;50.836;19.138;2023-07-31T00:22:04;3.63;;;2.30;;
74974;SDS011;68459;50.836;19.138;2023-07-31T00:25:09;4.32;;;2.10;;
74974;SDS011;68459;50.836;19.138;2023-07-31T00:28:14;3.15;;;2.20;;
74974;SDS011;68459;50.836;19.138;2023-07-31T00:31:18;3.20;;;2.10;;
74974;SDS011;68459;50.836;19.138;2023-07-31T00:34:22;2.78;;;1.92;;
74974;SDS011;68459;50.836;19.138;2023-07-31T00:37:26;2.70;;;1.90;;
74974;SDS011;68459;50.836;19.138;2023-07-31T00:40:35;3.42;;;1.92;;
74974;SDS011;68459;50.836;19.138;2023-07-31T00:43:42;3.67;;;1.90;;
74974;SDS011;68459;50.836;19.138;2023-07-31T00:46:45;4.17;;;2.03;;
74974;SDS011;68459;50.836;19.138;2023-07-31T00:49:50;3.15;;;1.80;;
74974;SDS011;68459;50.836;19.138;2023-07-31T00:52:54;2.30;;;1.42;;
74974;SDS011;68459;50.836;19.138;2023-07-31T00:55:59;3.58;;;1.85;;
74974;SDS011;68459;50.836;19.138;2023-07-31T00:59:04;3.07;;;1.80;;
74974;SDS011;68459;50.836;19.138;2023-07-31T01:02:08;4.47;;;1.90;;
74974;SDS011;68459;50.836;19.138;2023-07-31T01:05:12;3.65;;;2.03;;
74974;SDS011;68459;50.836;19.138;2023-07-31T01:08:18;2.92;;;2.20;;
74974;SDS011;68459;50.836;19.138;2023-07-31T01:11:34;3.47;;;1.67;;
74974;SDS011;68459;50.836;19.138;2023-07-31T01:14:56;3.13;;;1.65;;
74974;SDS011;68459;50.836;19.138;2023-07-31T01:18:06;2.28;;;1.45;;
74974;SDS011;68459;50.836;19.138;2023-07-31T01:21:16;2.30;;;1.30;;
74974;SDS011;68459;50.836;19.138;2023-07-31T01:24:35;2.58;;;1.40;;
74974;SDS011;68459;50.836;19.138;2023-07-31T01:27:53;2.65;;;1.85;;
74974;SDS011;68459;50.836;19.138;2023-07-31T01:31:05;3.13;;;1.55;;
74974;SDS011;68459;50.836;19.138;2023-07-31T01:34:14;3.10;;;1.63;;
74974;SDS011;68459;50.836;19.138;2023-07-31T01:37:20;2.60;;;1.35;;
74974;SDS011;68459;50.836;19.138;2023-07-31T01:40:25;2.42;;;1.40;;
74974;SDS011;68459;50.836;19.138;2023-07-31T01:43:30;4.13;;;1.40;;
74974;SDS011;68459;50.836;19.138;2023-07-31T01:46:34;3.65;;;1.30;;
74974;SDS011;68459;50.836;19.138;2023-07-31T01:49:37;4.18;;;1.45;;
74974;SDS011;68459;50.836;19.138;2023-07-31T01:52:41;3.13;;;1.45;;
74974;SDS011;68459;50.836;19.138;2023-07-31T01:55:46;3.47;;;1.50;;
74974;SDS011;68459;50.836;19.138;2023-07-31T01:58:51;2.50;;;1.10;;
74974;SDS011;68459;50.836;19.138;2023-07-31T02:01:55;2.40;;;1.30;;
74974;SDS011;68459;50.836;19.138;2023-07-31T02:04:59;3.40;;;1.42;;
74974;SDS011;68459;50.836;19.138;2023-07-31T02:08:03;3.42;;;1.23;;
74974;SDS011;68459;50.836;19.138;2023-07-31T02:11:08;2.25;;;1.10;;
74974;SDS011;68459;50.836;19.138;2023-07-31T02:14:13;4.05;;;1.42;;
74974;SDS011;68459;50.836;19.138;2023-07-31T02:17:17;2.43;;;1.10;;
74974;SDS011;68459;50.836;19.138;2023-07-31T02:20:21;2.92;;;1.40;;
74974;SDS011;68459;50.836;19.138;2023-07-31T02:23:25;2.78;;;1.30;;
74974;SDS011;68459;50.836;19.138;2023-07-31T02:26:28;3.05;;;1.38;;
74974;SDS011;68459;50.836;19.138;2023-07-31T02:29:34;2.38;;;1.20;;
74974;SDS011;68459;50.836;19.138;2023-07-31T02:32:38;3.40;;;1.27;;
74974;SDS011;68459;50.836;19.138;2023-07-31T02:35:42;2.20;;;1.20;;
74974;SDS011;68459;50.836;19.138;2023-07-31T02:38:46;2.67;;;1.30;;
74974;SDS011;68459;50.836;19.138;2023-07-31T02:41:50;3.55;;;1.40;;
74974;SDS011;68459;50.836;19.138;2023-07-31T02:44:55;2.88;;;1.50;;
74974;SDS011;68459;50.836;19.138;2023-07-31T02:47:59;4.18;;;1.40;;
74974;SDS011;68459;50.836;19.138;2023-07-31T02:51:03;2.17;;;1.27;;
74974;SDS011;68459;50.836;19.138;2023-07-31T02:54:07;4.00;;;1.40;;
74974;SDS011;68459;50.836;19.138;2023-07-31T02:57:11;4.47;;;1.48;;
74974;SDS011;68459;50.836;19.138;2023-07-31T03:00:17;2.85;;;1.30;;
74974;SDS011;68459;50.836;19.138;2023-07-31T03:03:20;3.25;;;1.42;;
74974;SDS011;68459;50.836;19.138;2023-07-31T03:06:25;2.00;;;1.15;;
74974;SDS011;68459;50.836;19.138;2023-07-31T03:09:29;5.03;;;1.40;;
74974;SDS011;68459;50.836;19.138;2023-07-31T03:12:33;3.80;;;1.40;;
74974;SDS011;68459;50.836;19.138;2023-07-31T03:15:38;3.00;;;1.27;;
74974;SDS011;68459;50.836;19.138;2023-07-31T03:18:45;3.03;;;1.50;;
74974;SDS011;68459;50.836;19.138;2023-07-31T03:21:49;4.38;;;1.42;;
74974;SDS011;68459;50.836;19.138;2023-07-31T03:24:53;4.07;;;1.33;;
74974;SDS011;68459;50.836;19.138;2023-07-31T03:27:57;2.63;;;1.48;;
74974;SDS011;68459;50.836;19.138;2023-07-31T03:31:03;3.65;;;1.33;;
74974;SDS011;68459;50.836;19.138;2023-07-31T03:34:06;3.23;;;1.47;;
74974;SDS011;68459;50.836;19.138;2023-07-31T03:37:11;2.50;;;1.40;;
74974;SDS011;68459;50.836;19.138;2023-07-31T03:40:14;3.28;;;1.40;;
74974;SDS011;68459;50.836;19.138;2023-07-31T03:43:18;2.73;;;1.40;;
74974;SDS011;68459;50.836;19.138;2023-07-31T03:46:24;5.68;;;1.40;;
74974;SDS011;68459;50.836;19.138;2023-07-31T03:49:28;2.90;;;1.40;;
74974;SDS011;68459;50.836;19.138;2023-07-31T03:52:32;4.28;;;1.70;;
74974;SDS011;68459;50.836;19.138;2023-07-31T03:55:36;6.30;;;1.60;;
74974;SDS011;68459;50.836;19.138;2023-07-31T03:58:40;3.67;;;1.27;;
74974;SDS011;68459;50.836;19.138;2023-07-31T04:01:45;3.33;;;1.30;;
74974;SDS011;68459;50.836;19.138;2023-07-31T04:04:49;4.50;;;1.67;;
74974;SDS011;68459;50.836;19.138;2023-07-31T04:07:53;2.42;;;1.30;;
74974;SDS011;68459;50.836;19.138;2023-07-31T04:10:57;3.90;;;1.38;;
74974;SDS011;68459;50.836;19.138;2023-07-31T04:14:01;4.25;;;1.40;;
74974;SDS011;68459;50.836;19.138;2023-07-31T04:17:06;4.47;;;1.37;;
74974;SDS011;68459;50.836;19.138;2023-07-31T04:20:13;5.82;;;1.50;;
74974;SDS011;68459;50.836;19.138;2023-07-31T04:23:17;4.95;;;1.63;;
74974;SDS011;68459;50.836;19.138;2023-07-31T04:26:21;4.68;;;1.73;;
74974;SDS011;68459;50.836;19.138;2023-07-31T04:29:25;3.75;;;1.50;;
74974;SDS011;68459;50.836;19.138;2023-07-31T04:32:30;3.17;;;1.35;;
74974;SDS011;68459;50.836;19.138;2023-07-31T04:35:34;4.07;;;1.52;;
74974;SDS011;68459;50.836;19.138;2023-07-31T04:38:38;4.30;;;1.37;;
74974;SDS011;68459;50.836;19.138;2023-07-31T04:41:42;4.00;;;1.30;;
74974;SDS011;68459;50.836;19.138;2023-07-31T04:44:46;4.10;;;1.30;;
74974;SDS011;68459;50.836;19.138;2023-07-31T04:47:51;3.40;;;1.63;;
74974;SDS011;68459;50.836;19.138;2023-07-31T04:50:55;4.55;;;1.42;;
74974;SDS011;68459;50.836;19.138;2023-07-31T04:53:59;3.38;;;1.50;;
74974;SDS011;68459;50.836;19.138;2023-07-31T04:57:03;4.30;;;1.50;;
74974;SDS011;68459;50.836;19.138;2023-07-31T05:00:09;3.50;;;1.77;;
74974;SDS011;68459;50.836;19.138;2023-07-31T05:03:15;4.15;;;1.63;;
74974;SDS011;68459;50.836;19.138;2023-07-31T05:06:19;4.50;;;1.75;;
74974;SDS011;68459;50.836;19.138;2023-07-31T05:09:23;3.15;;;1.48;;
74974;SDS011;68459;50.836;19.138;2023-07-31T05:12:27;4.73;;;1.60;;
74974;SDS011;68459;50.836;19.138;2023-07-31T05:15:32;2.90;;;1.27;;
74974;SDS011;68459;50.836;19.138;2023-07-31T05:18:37;3.10;;;1.65;;
74974;SDS011;68459;50.836;19.138;2023-07-31T05:21:41;5.15;;;1.23;;
74974;SDS011;68459;50.836;19.138;2023-07-31T05:24:45;3.93;;;2.00;;
74974;SDS011;68459;50.836;19.138;2023-07-31T05:27:49;2.40;;;1.30;;
74974;SDS011;68459;50.836;19.138;2023-07-31T05:30:58;3.85;;;1.85;;
74974;SDS011;68459;50.836;19.138;2023-07-31T05:34:04;3.10;;;1.80;;
74974;SDS011;68459;50.836;19.138;2023-07-31T05:37:09;3.63;;;1.60;;
74974;SDS011;68459;50.836;19.138;2023-07-31T05:40:14;3.50;;;1.50;;
74974;SDS011;68459;50.836;19.138;2023-07-31T05:43:17;3.65;;;1.80;;
74974;SDS011;68459;50.836;19.138;2023-07-31T05:46:22;2.60;;;1.70;;
74974;SDS011;68459;50.836;19.138;2023-07-31T05:49:27;4.45;;;1.30;;
74974;SDS011;68459;50.836;19.138;2023-07-31T05:52:31;3.05;;;1.52;;
74974;SDS011;68459;50.836;19.138;2023-07-31T05:55:35;3.45;;;1.60;;
74974;SDS011;68459;50.836;19.138;2023-07-31T05:58:39;4.87;;;1.67;;
74974;SDS011;68459;50.836;19.138;2023-07-31T06:01:43;4.85;;;1.67;;
74974;SDS011;68459;50.836;19.138;2023-07-31T06:04:49;4.25;;;1.58;;
74974;SDS011;68459;50.836;19.138;2023-07-31T06:07:53;3.25;;;1.75;;
74974;SDS011;68459;50.836;19.138;2023-07-31T06:10:57;3.53;;;1.55;;
74974;SDS011;68459;50.836;19.138;2023-07-31T06:14:00;2.63;;;1.33;;
74974;SDS011;68459;50.836;19.138;2023-07-31T06:17:04;3.80;;;1.48;;
74974;SDS011;68459;50.836;19.138;2023-07-31T06:20:10;4.70;;;1.65;;
74974;SDS011;68459;50.836;19.138;2023-07-31T06:23:14;2.63;;;1.70;;
74974;SDS011;68459;50.836;19.138;2023-07-31T06:26:20;3.70;;;1.60;;
74974;SDS011;68459;50.836;19.138;2023-07-31T06:29:24;3.55;;;1.52;;
74974;SDS011;68459;50.836;19.138;2023-07-31T06:32:30;3.55;;;1.73;;
74974;SDS011;68459;50.836;19.138;2023-07-31T06:35:35;6.00;;;1.93;;
74974;SDS011;68459;50.836;19.138;2023-07-31T06:38:39;2.63;;;1.50;;
74974;SDS011;68459;50.836;19.138;2023-07-31T06:41:43;4.95;;;1.60;;
74974;SDS011;68459;50.836;19.138;2023-07-31T06:44:49;4.53;;;1.75;;
74974;SDS011;68459;50.836;19.138;2023-07-31T06:53:14;2.63;;;1.42;;
74974;SDS011;68459;50.836;19.138;2023-07-31T06:56:18;5.30;;;1.48;;
74974;SDS011;68459;50.836;19.138;2023-07-31T06:59:24;4.25;;;1.52;;
74974;SDS011;68459;50.836;19.138;2023-07-31T07:02:28;3.67;;;1.60;;
74974;SDS011;68459;50.836;19.138;2023-07-31T07:05:32;5.43;;;1.42;;
74974;SDS011;68459;50.836;19.138;2023-07-31T07:08:37;3.40;;;1.50;;
74974;SDS011;68459;50.836;19.138;2023-07-31T07:11:44;2.95;;;1.55;;
74974;SDS011;68459;50.836;19.138;2023-07-31T07:14:48;3.10;;;1.27;;
74974;SDS011;68459;50.836;19.138;2023-07-31T07:17:52;3.95;;;1.45;;
74974;SDS011;68459;50.836;19.138;2023-07-31T07:20:57;5.00;;;1.60;;
74974;SDS011;68459;50.836;19.138;2023-07-31T07:24:05;3.25;;;1.40;;
74974;SDS011;68459;50.836;19.138;2023-07-31T07:27:09;3.20;;;1.23;;
74974;SDS011;68459;50.836;19.138;2023-07-31T07:30:12;4.45;;;1.40;;
74974;SDS011;68459;50.836;19.138;2023-07-31T07:33:18;7.57;;;1.48;;
74974;SDS011;68459;50.836;19.138;2023-07-31T07:36:22;5.20;;;1.45;;
74974;SDS011;68459;50.836;19.138;2023-07-31T07:39:28;3.50;;;1.30;;
74974;SDS011;68459;50.836;19.138;2023-07-31T07:42:31;3.05;;;1.50;;
74974;SDS011;68459;50.836;19.138;2023-07-31T07:45:35;3.60;;;1.23;;
74974;SDS011;68459;50.836;19.138;2023-07-31T07:48:39;3.55;;;1.13;;
74974;SDS011;68459;50.836;19.138;2023-07-31T07:51:43;3.43;;;1.00;;
74974;SDS011;68459;50.836;19.138;2023-07-31T07:54:48;3.13;;;1.38;;
74974;SDS011;68459;50.836;19.138;2023-07-31T07:57:52;4.05;;;1.10;;
74974;SDS011;68459;50.836;19.138;2023-07-31T08:00:56;3.83;;;1.00;;
74974;SDS011;68459;50.836;19.138;2023-07-31T08:04:00;2.97;;;1.20;;
74974;SDS011;68459;50.836;19.138;2023-07-31T08:07:04;5.07;;;1.23;;
74974;SDS011;68459;50.836;19.138;2023-07-31T08:10:10;4.50;;;1.00;;
74974;SDS011;68459;50.836;19.138;2023-07-31T08:13:14;2.95;;;0.70;;
74974;SDS011;68459;50.836;19.138;2023-07-31T08:16:18;2.87;;;1.00;;
74974;SDS011;68459;50.836;19.138;2023-07-31T08:19:21;3.65;;;0.80;;
74974;SDS011;68459;50.836;19.138;2023-07-31T08:22:26;6.10;;;2.38;;
74974;SDS011;68459;50.836;19.138;2023-07-31T08:25:33;4.00;;;1.30;;
74974;SDS011;68459;50.836;19.138;2023-07-31T08:28:38;3.93;;;1.60;;
74974;SDS011;68459;50.836;19.138;2023-07-31T08:31:42;2.85;;;0.80;;
74974;SDS011;68459;50.836;19.138;2023-07-31T08:34:46;3.40;;;1.02;;
74974;SDS011;68459;50.836;19.138;2023-07-31T08:37:51;2.45;;;1.00;;
74974;SDS011;68459;50.836;19.138;2023-07-31T08:40:57;4.50;;;0.95;;
74974;SDS011;68459;50.836;19.138;2023-07-31T08:44:01;4.13;;;0.95;;
74974;SDS011;68459;50.836;19.138;2023-07-31T08:47:05;3.13;;;0.90;;
74974;SDS011;68459;50.836;19.138;2023-07-31T08:50:09;6.13;;;0.98;;
74974;SDS011;68459;50.836;19.138;2023-07-31T08:53:16;3.25;;;1.27;;
74974;SDS011;68459;50.836;19.138;2023-07-31T08:56:21;3.80;;;1.00;;
74974;SDS011;68459;50.836;19.138;2023-07-31T08:59:26;2.25;;;0.75;;
74974;SDS011;68459;50.836;19.138;2023-07-31T09:02:35;3.65;;;1.25;;
74974;SDS011;68459;50.836;19.138;2023-07-31T09:05:45;8.23;;;3.42;;
74974;SDS011;68459;50.836;19.138;2023-07-31T09:08:50;4.70;;;1.10;;
74974;SDS011;68459;50.836;19.138;2023-07-31T09:11:55;2.00;;;0.82;;
74974;SDS011;68459;50.836;19.138;2023-07-31T09:15:01;2.78;;;1.20;;
74974;SDS011;68459;50.836;19.138;2023-07-31T09:18:06;2.83;;;1.02;;
74974;SDS011;68459;50.836;19.138;2023-07-31T09:21:10;2.88;;;1.00;;
74974;SDS011;68459;50.836;19.138;2023-07-31T09:24:16;3.27;;;0.93;;
74974;SDS011;68459;50.836;19.138;2023-07-31T09:27:30;4.97;;;0.80;;
74974;SDS011;68459;50.836;19.138;2023-07-31T09:30:50;3.88;;;0.90;;
74974;SDS011;68459;50.836;19.138;2023-07-31T09:33:55;3.38;;;1.00;;
74974;SDS011;68459;50.836;19.138;2023-07-31T09:37:01;3.65;;;1.10;;
74974;SDS011;68459;50.836;19.138;2023-07-31T09:40:05;4.33;;;1.50;;
74974;SDS011;68459;50.836;19.138;2023-07-31T09:43:13;2.70;;;0.90;;
74974;SDS011;68459;50.836;19.138;2023-07-31T09:46:20;2.85;;;1.00;;
74974;SDS011;68459;50.836;19.138;2023-07-31T09:49:25;4.63;;;1.15;;
74974;SDS011;68459;50.836;19.138;2023-07-31T09:52:28;3.75;;;1.38;;
74974;SDS011;68459;50.836;19.138;2023-07-31T09:55:33;3.53;;;1.10;;
74974;SDS011;68459;50.836;19.138;2023-07-31T09:58:38;2.15;;;0.90;;
74974;SDS011;68459;50.836;19.138;2023-07-31T10:01:43;2.22;;;0.98;;
74974;SDS011;68459;50.836;19.138;2023-07-31T10:04:49;3.03;;;0.95;;
74974;SDS011;68459;50.836;19.138;2023-07-31T10:07:54;2.97;;;1.00;;
74974;SDS011;68459;50.836;19.138;2023-07-31T10:10:59;2.37;;;0.80;;
74974;SDS011;68459;50.836;19.138;2023-07-31T10:14:07;2.20;;;1.00;;
74974;SDS011;68459;50.836;19.138;2023-07-31T10:17:10;4.82;;;0.93;;
74974;SDS011;68459;50.836;19.138;2023-07-31T10:20:15;3.53;;;1.25;;
74974;SDS011;68459;50.836;19.138;2023-07-31T10:23:19;2.35;;;0.80;;
74974;SDS011;68459;50.836;19.138;2023-07-31T10:26:25;3.97;;;0.97;;
74974;SDS011;68459;50.836;19.138;2023-07-31T10:29:31;1.95;;;0.88;;
74974;SDS011;68459;50.836;19.138;2023-07-31T10:32:36;3.65;;;0.90;;
74974;SDS011;68459;50.836;19.138;2023-07-31T10:35:41;4.75;;;1.88;;
74974;SDS011;68459;50.836;19.138;2023-07-31T10:38:45;4.38;;;1.30;;
74974;SDS011;68459;50.836;19.138;2023-07-31T10:41:51;2.33;;;0.87;;
74974;SDS011;68459;50.836;19.138;2023-07-31T10:44:57;3.60;;;1.10;;
74974;SDS011;68459;50.836;19.138;2023-07-31T10:48:03;3.45;;;0.90;;
74974;SDS011;68459;50.836;19.138;2023-07-31T10:51:09;2.88;;;1.00;;
74974;SDS011;68459;50.836;19.138;2023-07-31T10:54:15;4.13;;;1.00;;
74974;SDS011;68459;50.836;19.138;2023-07-31T10:57:24;2.67;;;0.70;;
74974;SDS011;68459;50.836;19.138;2023-07-31T11:00:29;1.85;;;0.82;;
74974;SDS011;68459;50.836;19.138;2023-07-31T11:03:43;4.95;;;0.95;;
74974;SDS011;68459;50.836;19.138;2023-07-31T11:06:55;1.85;;;0.80;;
74974;SDS011;68459;50.836;19.138;2023-07-31T11:10:00;2.88;;;0.90;;
74974;SDS011;68459;50.836;19.138;2023-07-31T11:13:04;2.93;;;0.80;;
74974;SDS011;68459;50.836;19.138;2023-07-31T11:16:10;5.55;;;1.00;;
74974;SDS011;68459;50.836;19.138;2023-07-31T11:19:15;2.90;;;1.00;;
74974;SDS011;68459;50.836;19.138;2023-07-31T11:22:25;1.85;;;0.73;;
74974;SDS011;68459;50.836;19.138;2023-07-31T11:25:30;3.35;;;0.90;;
74974;SDS011;68459;50.836;19.138;2023-07-31T11:28:35;3.00;;;0.90;;
74974;SDS011;68459;50.836;19.138;2023-07-31T11:31:43;2.17;;;0.98;;
74974;SDS011;68459;50.836;19.138;2023-07-31T11:34:50;2.85;;;1.40;;
74974;SDS011;68459;50.836;19.138;2023-07-31T11:37:55;2.67;;;0.95;;
74974;SDS011;68459;50.836;19.138;2023-07-31T11:41:00;3.28;;;1.15;;
74974;SDS011;68459;50.836;19.138;2023-07-31T11:44:05;2.23;;;0.83;;
74974;SDS011;68459;50.836;19.138;2023-07-31T11:47:29;3.17;;;0.77;;
74974;SDS011;68459;50.836;19.138;2023-07-31T11:50:33;3.70;;;0.98;;
74974;SDS011;68459;50.836;19.138;2023-07-31T11:53:41;3.60;;;1.08;;
74974;SDS011;68459;50.836;19.138;2023-07-31T11:56:46;3.78;;;0.90;;
74974;SDS011;68459;50.836;19.138;2023-07-31T11:59:52;3.33;;;0.70;;
74974;SDS011;68459;50.836;19.138;2023-07-31T12:02:57;3.05;;;0.73;;
74974;SDS011;68459;50.836;19.138;2023-07-31T12:06:01;2.38;;;0.90;;
74974;SDS011;68459;50.836;19.138;2023-07-31T12:09:05;3.90;;;1.00;;
74974;SDS011;68459;50.836;19.138;2023-07-31T12:12:09;2.25;;;0.70;;
74974;SDS011;68459;50.836;19.138;2023-07-31T12:15:14;1.60;;;0.70;;
74974;SDS011;68459;50.836;19.138;2023-07-31T12:18:20;4.47;;;1.10;;
74974;SDS011;68459;50.836;19.138;2023-07-31T12:21:24;6.20;;;0.80;;
74974;SDS011;68459;50.836;19.138;2023-07-31T12:24:30;2.25;;;0.70;;
74974;SDS011;68459;50.836;19.138;2023-07-31T12:27:39;2.20;;;0.70;;
74974;SDS011;68459;50.836;19.138;2023-07-31T12:30:43;2.33;;;0.70;;
74974;SDS011;68459;50.836;19.138;2023-07-31T12:33:51;2.95;;;0.88;;
74974;SDS011;68459;50.836;19.138;2023-07-31T12:36:55;2.15;;;0.60;;
74974;SDS011;68459;50.836;19.138;2023-07-31T12:39:59;1.58;;;0.68;;
74974;SDS011;68459;50.836;19.138;2023-07-31T12:43:10;3.13;;;0.70;;
74974;SDS011;68459;50.836;19.138;2023-07-31T12:46:14;2.57;;;0.80;;
74974;SDS011;68459;50.836;19.138;2023-07-31T12:49:21;2.08;;;0.60;;
74974;SDS011;68459;50.836;19.138;2023-07-31T12:52:25;2.10;;;0.63;;
74974;SDS011;68459;50.836;19.138;2023-07-31T12:55:29;7.20;;;1.23;;
74974;SDS011;68459;50.836;19.138;2023-07-31T12:58:34;5.65;;;0.98;;
74974;SDS011;68459;50.836;19.138;2023-07-31T13:01:38;3.30;;;0.90;;
74974;SDS011;68459;50.836;19.138;2023-07-31T13:04:43;3.88;;;0.93;;
74974;SDS011;68459;50.836;19.138;2023-07-31T13:07:48;3.60;;;1.00;;
74974;SDS011;68459;50.836;19.138;2023-07-31T13:10:54;2.17;;;0.90;;
74974;SDS011;68459;50.836;19.138;2023-07-31T13:13:58;2.83;;;0.77;;
74974;SDS011;68459;50.836;19.138;2023-07-31T13:17:02;2.40;;;0.70;;
74974;SDS011;68459;50.836;19.138;2023-07-31T13:20:09;3.13;;;0.80;;
74974;SDS011;68459;50.836;19.138;2023-07-31T13:23:13;3.28;;;0.80;;
74974;SDS011;68459;50.836;19.138;2023-07-31T13:26:18;3.90;;;0.77;;
74974;SDS011;68459;50.836;19.138;2023-07-31T13:29:21;2.25;;;0.70;;
74974;SDS011;68459;50.836;19.138;2023-07-31T13:32:26;2.57;;;0.67;;
74974;SDS011;68459;50.836;19.138;2023-07-31T13:35:31;3.10;;;0.57;;
74974;SDS011;68459;50.836;19.138;2023-07-31T13:38:35;3.30;;;0.70;;
74974;SDS011;68459;50.836;19.138;2023-07-31T13:41:39;4.75;;;0.70;;
74974;SDS011;68459;50.836;19.138;2023-07-31T13:44:43;2.45;;;0.63;;
74974;SDS011;68459;50.836;19.138;2023-07-31T13:47:47;4.40;;;0.90;;
74974;SDS011;68459;50.836;19.138;2023-07-31T13:50:53;3.40;;;0.90;;
74974;SDS011;68459;50.836;19.138;2023-07-31T13:53:57;1.88;;;0.70;;
74974;SDS011;68459;50.836;19.138;2023-07-31T13:57:01;4.63;;;0.90;;
74974;SDS011;68459;50.836;19.138;2023-07-31T14:00:06;1.98;;;0.70;;
74974;SDS011;68459;50.836;19.138;2023-07-31T14:03:11;2.10;;;0.70;;
74974;SDS011;68459;50.836;19.138;2023-07-31T14:06:16;3.00;;;1.13;;
74974;SDS011;68459;50.836;19.138;2023-07-31T14:09:20;1.98;;;0.93;;
74974;SDS011;68459;50.836;19.138;2023-07-31T14:12:24;2.63;;;0.70;;
74974;SDS011;68459;50.836;19.138;2023-07-31T14:15:44;2.92;;;0.93;;
74974;SDS011;68459;50.836;19.138;2023-07-31T14:18:48;1.43;;;0.50;;
74974;SDS011;68459;50.836;19.138;2023-07-31T14:21:54;2.42;;;1.20;;
74974;SDS011;68459;50.836;19.138;2023-07-31T14:25:11;2.20;;;1.00;;
74974;SDS011;68459;50.836;19.138;2023-07-31T14:28:16;3.47;;;1.20;;
74974;SDS011;68459;50.836;19.138;2023-07-31T14:31:19;2.53;;;1.20;;
74974;SDS011;68459;50.836;19.138;2023-07-31T14:34:23;5.50;;;2.17;;
74974;SDS011;68459;50.836;19.138;2023-07-31T14:37:34;4.03;;;1.07;;
74974;SDS011;68459;50.836;19.138;2023-07-31T14:40:41;2.83;;;1.15;;
74974;SDS011;68459;50.836;19.138;2023-07-31T14:43:45;2.53;;;1.30;;
74974;SDS011;68459;50.836;19.138;2023-07-31T14:46:49;3.60;;;1.15;;
74974;SDS011;68459;50.836;19.138;2023-07-31T14:49:53;2.47;;;1.07;;
74974;SDS011;68459;50.836;19.138;2023-07-31T14:52:58;2.37;;;1.20;;
74974;SDS011;68459;50.836;19.138;2023-07-31T14:56:02;2.55;;;1.25;;
74974;SDS011;68459;50.836;19.138;2023-07-31T14:59:07;3.78;;;1.30;;
74974;SDS011;68459;50.836;19.138;2023-07-31T15:02:11;3.60;;;1.50;;
74974;SDS011;68459;50.836;19.138;2023-07-31T15:05:15;4.10;;;1.47;;
74974;SDS011;68459;50.836;19.138;2023-07-31T15:08:20;2.27;;;1.17;;
74974;SDS011;68459;50.836;19.138;2023-07-31T15:11:25;3.50;;;1.40;;
74974;SDS011;68459;50.836;19.138;2023-07-31T15:14:30;2.78;;;1.27;;
74974;SDS011;68459;50.836;19.138;2023-07-31T15:17:34;2.15;;;1.10;;
74974;SDS011;68459;50.836;19.138;2023-07-31T15:20:38;2.90;;;1.30;;
74974;SDS011;68459;50.836;19.138;2023-07-31T15:23:44;2.23;;;1.20;;
74974;SDS011;68459;50.836;19.138;2023-07-31T15:26:47;2.67;;;1.20;;
74974;SDS011;68459;50.836;19.138;2023-07-31T15:29:51;3.83;;;1.30;;
74974;SDS011;68459;50.836;19.138;2023-07-31T15:32:55;2.60;;;1.10;;
74974;SDS011;68459;50.836;19.138;2023-07-31T15:35:59;2.63;;;1.20;;
74974;SDS011;68459;50.836;19.138;2023-07-31T15:39:05;4.10;;;1.17;;
74974;SDS011;68459;50.836;19.138;2023-07-31T15:42:10;2.30;;;1.10;;
74974;SDS011;68459;50.836;19.138;2023-07-31T15:45:14;3.85;;;1.48;;
74974;SDS011;68459;50.836;19.138;2023-07-31T15:48:18;3.55;;;2.28;;
74974;SDS011;68459;50.836;19.138;2023-07-31T15:51:22;3.97;;;1.20;;
74974;SDS011;68459;50.836;19.138;2023-07-31T15:54:27;3.23;;;1.20;;
74974;SDS011;68459;50.836;19.138;2023-07-31T15:57:31;2.45;;;1.10;;
74974;SDS011;68459;50.836;19.138;2023-07-31T16:00:35;1.90;;;1.17;;
74974;SDS011;68459;50.836;19.138;2023-07-31T16:03:39;2.75;;;1.35;;
74974;SDS011;68459;50.836;19.138;2023-07-31T16:06:43;3.70;;;1.50;;
74974;SDS011;68459;50.836;19.138;2023-07-31T16:09:49;2.80;;;1.30;;
74974;SDS011;68459;50.836;19.138;2023-07-31T16:12:53;2.63;;;1.60;;
74974;SDS011;68459;50.836;19.138;2023-07-31T16:15:58;3.33;;;1.42;;
74974;SDS011;68459;50.836;19.138;2023-07-31T16:19:02;2.22;;;1.20;;
74974;SDS011;68459;50.836;19.138;2023-07-31T16:22:07;4.03;;;1.60;;
74974;SDS011;68459;50.836;19.138;2023-07-31T16:25:12;3.03;;;1.30;;
74974;SDS011;68459;50.836;19.138;2023-07-31T16:28:17;3.42;;;1.58;;
74974;SDS011;68459;50.836;19.138;2023-07-31T16:31:22;1.85;;;1.35;;
74974;SDS011;68459;50.836;19.138;2023-07-31T16:34:27;2.90;;;1.63;;
74974;SDS011;68459;50.836;19.138;2023-07-31T16:37:31;2.60;;;1.50;;
74974;SDS011;68459;50.836;19.138;2023-07-31T16:40:36;3.77;;;1.53;;
74974;SDS011;68459;50.836;19.138;2023-07-31T16:43:40;2.33;;;1.40;;
74974;SDS011;68459;50.836;19.138;2023-07-31T16:46:44;3.60;;;1.67;;
74974;SDS011;68459;50.836;19.138;2023-07-31T16:49:48;3.25;;;1.88;;
74974;SDS011;68459;50.836;19.138;2023-07-31T16:52:52;3.20;;;1.70;;
74974;SDS011;68459;50.836;19.138;2023-07-31T16:55:57;4.07;;;1.57;;
74974;SDS011;68459;50.836;19.138;2023-07-31T16:59:01;6.38;;;5.18;;
74974;SDS011;68459;50.836;19.138;2023-07-31T17:02:06;4.38;;;1.85;;
74974;SDS011;68459;50.836;19.138;2023-07-31T17:05:11;2.78;;;1.50;;
74974;SDS011;68459;50.836;19.138;2023-07-31T17:08:14;3.70;;;1.90;;
74974;SDS011;68459;50.836;19.138;2023-07-31T17:11:20;3.07;;;1.70;;
74974;SDS011;68459;50.836;19.138;2023-07-31T17:14:24;4.25;;;1.98;;
74974;SDS011;68459;50.836;19.138;2023-07-31T17:17:28;3.78;;;2.00;;
74974;SDS011;68459;50.836;19.138;2023-07-31T17:20:32;4.40;;;1.85;;
74974;SDS011;68459;50.836;19.138;2023-07-31T17:23:36;4.20;;;1.80;;
74974;SDS011;68459;50.836;19.138;2023-07-31T17:26:41;3.20;;;1.80;;
74974;SDS011;68459;50.836;19.138;2023-07-31T17:29:45;5.38;;;1.80;;
74974;SDS011;68459;50.836;19.138;2023-07-31T17:32:49;2.95;;;1.70;;
74974;SDS011;68459;50.836;19.138;2023-07-31T17:35:54;2.95;;;1.45;;
74974;SDS011;68459;50.836;19.138;2023-07-31T17:38:57;4.43;;;1.70;;
74974;SDS011;68459;50.836;19.138;2023-07-31T17:42:03;5.23;;;1.83;;
74974;SDS011;68459;50.836;19.138;2023-07-31T17:45:08;3.35;;;1.90;;
74974;SDS011;68459;50.836;19.138;2023-07-31T17:48:13;7.45;;;2.10;;
74974;SDS011;68459;50.836;19.138;2023-07-31T17:51:17;3.13;;;1.80;;
74974;SDS011;68459;50.836;19.138;2023-07-31T17:54:22;4.07;;;2.00;;
74974;SDS011;68459;50.836;19.138;2023-07-31T17:57:28;4.53;;;1.83;;
74974;SDS011;68459;50.836;19.138;2023-07-31T18:00:32;3.60;;;1.92;;
74974;SDS011;68459;50.836;19.138;2023-07-31T18:03:40;4.68;;;1.83;;
74974;SDS011;68459;50.836;19.138;2023-07-31T18:06:43;4.30;;;1.95;;
74974;SDS011;68459;50.836;19.138;2023-07-31T18:09:47;2.87;;;1.50;;
74974;SDS011;68459;50.836;19.138;2023-07-31T18:12:54;4.07;;;2.33;;
74974;SDS011;68459;50.836;19.138;2023-07-31T18:15:58;4.63;;;1.80;;
74974;SDS011;68459;50.836;19.138;2023-07-31T18:19:05;4.20;;;1.70;;
74974;SDS011;68459;50.836;19.138;2023-07-31T18:22:09;4.38;;;1.55;;